Time;durP1;ratioP1;P1;durP2;ratioP2;P2;SDS_P1;SDS_P2;PMS_P1;PMS_P2;Temp;Humidity;BMP_temperature;BMP_pressure;BME280_temperature;BME280_humidity;BME280_pressure;Samples;Min_cycle;Max_cycle;Signal;HPM_P1;HPM_P2
2023/03/08 00:00:22;;;;;;;15.47;7.50;;;;;;;7.31;66.51;94346.59;5032087;28;20283;-72
2023/03/08 00:02:47;;;;;;;18.83;7.70;;;;;;;7.36;66.86;94352.03;5015464;28;20287;-71
2023/03/08 00:05:13;;;;;;;14.10;7.00;;;;;;;7.34;67.16;94346.22;5030605;28;20226;-72
2023/03/08 00:07:41;;;;;;;19.20;7.33;;;;;;;7.01;67.81;94345.25;5030892;28;20236;-71
2023/03/08 00:10:07;;;;;;;16.93;7.00;;;;;;;7.19;66.95;94353.34;5013767;28;20711;-72
2023/03/08 00:12:32;;;;;;;14.77;7.00;;;;;;;7.19;67.61;94351.56;5028534;28;20280;-72
2023/03/08 00:14:58;;;;;;;13.50;6.83;;;;;;;7.33;67.74;94353.22;5013299;28;20362;-72
2023/03/08 00:17:24;;;;;;;14.93;7.23;;;;;;;7.22;67.63;94360.78;5029550;28;20260;-72
2023/03/08 00:19:56;;;;;;;15.00;7.40;;;;;;;7.47;68.41;94359.31;5039878;28;20236;-71
2023/03/08 00:22:21;;;;;;;15.60;7.20;;;;;;;7.39;66.92;94352.47;5017102;28;20237;-72
2023/03/08 00:24:47;;;;;;;16.87;7.10;;;;;;;7.16;67.05;94351.16;4989544;28;20258;-72
2023/03/08 00:27:15;;;;;;;14.77;6.80;;;;;;;7.06;68.57;94346.28;5020521;28;20248;-72
2023/03/08 00:29:41;;;;;;;16.50;7.30;;;;;;;7.23;68.44;94357.19;5032365;28;20299;-72
2023/03/08 00:32:08;;;;;;;14.97;6.93;;;;;;;7.09;68.76;94360.72;5030358;28;20904;-72
2023/03/08 00:34:34;;;;;;;14.20;6.93;;;;;;;6.99;68.99;94350.66;5039679;28;20305;-72
2023/03/08 00:37:05;;;;;;;14.30;6.83;;;;;;;7.09;68.48;94345.91;5019690;28;20286;-73
2023/03/08 00:39:30;;;;;;;13.47;6.90;;;;;;;7.19;67.83;94350.75;5008201;28;20234;-71
2023/03/08 00:41:56;;;;;;;15.17;6.87;;;;;;;7.07;68.72;94347.88;5012799;28;20221;-72
2023/03/08 00:44:22;;;;;;;13.43;6.70;;;;;;;6.81;69.63;94341.75;5034646;28;20230;-71
2023/03/08 00:46:47;;;;;;;13.43;7.07;;;;;;;6.78;70.50;94345.53;5030416;28;20232;-72
2023/03/08 00:49:13;;;;;;;13.97;6.77;;;;;;;6.82;69.13;94338.13;5010002;28;20237;-73
2023/03/08 00:51:41;;;;;;;16.50;7.40;;;;;;;6.67;70.19;94339.03;5034425;28;20238;-72
2023/03/08 00:54:09;;;;;;;16.37;7.10;;;;;;;6.82;70.39;94341.53;5017655;28;20230;-72
2023/03/08 00:56:34;;;;;;;17.47;7.20;;;;;;;6.52;70.57;94338.31;5026173;28;20229;-71
2023/03/08 00:59:00;;;;;;;13.80;6.90;;;;;;;6.42;70.94;94344.88;5033243;28;20272;-73
2023/03/08 01:01:25;;;;;;;12.90;6.23;;;;;;;6.49;69.45;94349.13;5038943;28;20232;-72
2023/03/08 01:03:51;;;;;;;13.27;6.27;;;;;;;6.67;70.31;94349.44;5027613;28;20225;-72
2023/03/08 01:06:19;;;;;;;18.33;6.53;;;;;;;6.75;70.34;94349.31;5033709;28;20233;-72
2023/03/08 01:08:47;;;;;;;12.80;6.53;;;;;;;6.84;70.08;94355.16;5038549;28;20736;-72
2023/03/08 01:11:23;;;;;;;12.13;6.03;;;;;;;6.66;70.59;94353.03;5018217;28;20230;-72
2023/03/08 01:13:51;;;;;;;14.47;6.13;;;;;;;6.64;70.83;94347.22;5026041;28;20249;-72
2023/03/08 01:16:26;;;;;;;13.33;6.50;;;;;;;6.89;71.40;94350.19;5007897;28;20768;-72
2023/03/08 01:18:54;;;;;;;12.30;6.70;;;;;;;6.90;69.83;94353.59;5004173;28;20233;-71
2023/03/08 01:21:20;;;;;;;16.30;6.27;;;;;;;6.62;71.11;94348.41;5025797;28;20225;-72
2023/03/08 01:23:49;;;;;;;16.60;6.30;;;;;;;6.69;71.33;94341.44;5026580;28;20726;-72
2023/03/08 01:26:19;;;;;;;13.30;6.50;;;;;;;6.76;70.96;94343.09;5033612;28;20238;-72
2023/03/08 01:28:44;;;;;;;15.10;7.20;;;;;;;6.53;71.75;94345.16;5034291;28;20264;-71
2023/03/08 01:31:25;;;;;;;13.50;6.60;;;;;;;6.47;73.15;94358.88;5025677;28;20267;-71
2023/03/08 01:33:56;;;;;;;14.23;6.80;;;;;;;6.35;73.58;94363.00;5018271;28;20341;-72
2023/03/08 01:36:23;;;;;;;13.23;6.97;;;;;;;6.26;72.78;94345.91;5019278;28;20762;-72
2023/03/08 01:38:49;;;;;;;15.23;7.00;;;;;;;6.02;74.00;94356.69;5013191;28;20252;-72
2023/03/08 01:41:22;;;;;;;16.43;7.07;;;;;;;6.28;73.66;94372.50;4991422;28;20229;-70
2023/03/08 01:43:48;;;;;;;15.93;6.83;;;;;;;6.43;72.51;94365.47;5034222;28;20321;-73
2023/03/08 01:46:35;;;;;;;15.77;7.30;;;;;;;6.33;73.54;94364.97;5007598;28;20305;-71
2023/03/08 01:49:07;;;;;;;14.17;7.13;;;;;;;6.25;74.01;94369.50;5018105;28;20257;-72
2023/03/08 01:51:53;;;;;;;16.90;7.10;;;;;;;6.28;73.05;94366.53;5038134;28;20271;-71
2023/03/08 01:54:25;;;;;;;13.17;6.77;;;;;;;6.03;74.04;94347.91;5028597;28;20233;-72
2023/03/08 01:56:51;;;;;;;16.63;7.67;;;;;;;5.85;76.67;94356.13;5008098;28;20246;-72
2023/03/08 01:59:22;;;;;;;15.50;6.87;;;;;;;6.00;75.24;94364.69;5012735;28;20240;-72
2023/03/08 02:01:48;;;;;;;14.97;7.17;;;;;;;6.00;75.17;94349.09;5005096;28;20294;-72
2023/03/08 02:04:13;;;;;;;16.00;7.63;;;;;;;5.86;76.31;94356.94;5017101;28;20233;-72
2023/03/08 02:06:42;;;;;;;17.57;7.73;;;;;;;6.10;75.38;94357.38;5020139;28;20233;-71
2023/03/08 02:09:08;;;;;;;13.70;6.63;;;;;;;6.07;74.13;94360.34;5032888;28;20786;-71
2023/03/08 02:11:41;;;;;;;14.90;7.50;;;;;;;5.70;76.41;94352.75;5007806;28;20226;-72
2023/03/08 02:14:09;;;;;;;17.50;7.40;;;;;;;5.95;75.79;94366.22;5007156;28;20250;-72
2023/03/08 02:16:35;;;;;;;20.77;7.60;;;;;;;5.90;75.92;94364.16;5012853;28;20241;-72
2023/03/08 02:19:03;;;;;;;15.53;7.43;;;;;;;5.94;75.82;94362.03;5031908;28;20246;-72
2023/03/08 02:21:29;;;;;;;18.23;8.23;;;;;;;5.84;75.40;94358.88;5037804;28;20309;-72
2023/03/08 02:23:55;;;;;;;18.43;7.80;;;;;;;5.98;75.46;94360.66;5003388;28;20320;-72
2023/03/08 02:26:23;;;;;;;19.87;8.53;;;;;;;5.90;74.59;94348.59;5015439;28;20238;-72
2023/03/08 02:28:48;;;;;;;16.57;7.83;;;;;;;5.72;76.85;94350.78;5010726;28;20228;-73
2023/03/08 02:31:14;;;;;;;20.07;8.33;;;;;;;6.03;75.61;94358.31;5018139;28;20272;-71
2023/03/08 02:33:39;;;;;;;19.93;8.57;;;;;;;5.93;75.14;94353.41;5018679;28;20263;-71
2023/03/08 02:36:06;;;;;;;19.97;8.50;;;;;;;5.93;75.52;94363.81;4993223;28;20239;-72
2023/03/08 02:38:32;;;;;;;18.77;9.07;;;;;;;5.87;76.75;94368.94;5033973;28;20230;-71
2023/03/08 02:40:58;;;;;;;17.07;8.73;;;;;;;6.00;75.59;94379.44;5012570;28;20257;-72
2023/03/08 02:43:23;;;;;;;21.67;9.53;;;;;;;6.12;74.50;94380.56;5016601;28;20233;-72
2023/03/08 02:45:51;;;;;;;23.83;9.50;;;;;;;6.13;74.42;94370.97;5017828;28;20930;-72
2023/03/08 02:48:20;;;;;;;21.50;9.50;;;;;;;6.06;74.52;94366.53;5032712;28;20499;-72
2023/03/08 02:50:45;;;;;;;24.40;10.10;;;;;;;5.83;77.12;94386.63;5013794;28;20305;-73
2023/03/08 02:53:11;;;;;;;25.07;12.07;;;;;;;5.87;75.47;94384.53;5029299;28;20233;-71
2023/03/08 02:55:37;;;;;;;24.13;11.00;;;;;;;5.89;76.31;94387.72;5002326;28;20722;-71
2023/03/08 02:58:03;;;;;;;27.07;11.33;;;;;;;5.50;77.53;94369.88;5000769;28;20268;-71
2023/03/08 03:00:29;;;;;;;25.17;11.93;;;;;;;5.62;77.57;94380.59;5007458;28;20287;-71
2023/03/08 03:02:54;;;;;;;27.00;11.20;;;;;;;5.71;76.08;94380.31;5001720;28;20857;-71
2023/03/08 03:05:20;;;;;;;23.53;10.63;;;;;;;5.63;77.65;94380.44;5013159;28;20234;-72
2023/03/08 03:07:46;;;;;;;24.70;10.83;;;;;;;5.47;79.19;94391.81;5015346;28;20312;-71
2023/03/08 03:10:12;;;;;;;22.17;9.83;;;;;;;5.72;77.58;94386.31;5015111;28;20269;-71
2023/03/08 03:12:38;;;;;;;23.23;10.07;;;;;;;5.83;76.57;94385.81;5017949;28;20279;-71
2023/03/08 03:15:04;;;;;;;20.50;9.93;;;;;;;5.50;77.87;94382.88;5026496;28;20268;-72
2023/03/08 03:17:30;;;;;;;19.90;9.90;;;;;;;5.65;78.23;94393.22;5031047;28;20234;-72
2023/03/08 03:19:56;;;;;;;19.43;8.77;;;;;;;5.42;78.35;94386.38;5015450;28;20715;-72
2023/03/08 03:22:24;;;;;;;23.23;8.97;;;;;;;5.30;79.31;94387.03;5017760;28;20240;-72
2023/03/08 03:24:52;;;;;;;17.50;8.30;;;;;;;5.45;78.91;94392.97;5016751;28;20237;-72
2023/03/08 03:27:18;;;;;;;19.83;8.17;;;;;;;5.56;78.27;94394.31;5028969;28;20232;-72
2023/03/08 03:29:44;;;;;;;19.63;8.57;;;;;;;5.31;79.06;94394.63;5012153;28;20858;-72
2023/03/08 03:32:09;;;;;;;20.23;9.00;;;;;;;5.23;79.66;94405.06;5006801;28;20240;-72
2023/03/08 03:34:35;;;;;;;14.43;7.73;;;;;;;5.47;78.41;94403.19;5018390;28;20249;-72
2023/03/08 03:37:03;;;;;;;17.80;8.07;;;;;;;5.21;79.35;94396.69;4994714;28;20245;-72
2023/03/08 03:39:33;;;;;;;19.97;8.30;;;;;;;5.42;79.41;94412.31;4978093;28;20253;-72
2023/03/08 03:41:59;;;;;;;18.03;7.73;;;;;;;5.49;79.01;94389.06;4980796;28;20230;-72
2023/03/08 03:44:25;;;;;;;16.83;7.27;;;;;;;5.58;79.56;94411.31;4981076;28;20238;-71
2023/03/08 03:46:50;;;;;;;19.73;8.40;;;;;;;5.66;78.59;94408.59;5020510;28;20233;-72
2023/03/08 03:49:19;;;;;;;18.37;7.57;;;;;;;5.56;79.11;94408.09;5021110;28;20283;-72
2023/03/08 03:51:44;;;;;;;17.23;7.80;;;;;;;5.58;78.89;94420.88;5014362;28;20343;-71
2023/03/08 03:54:10;;;;;;;20.03;7.53;;;;;;;5.69;77.76;94417.81;5013444;28;20230;-71
2023/03/08 03:56:36;;;;;;;19.47;7.10;;;;;;;5.85;77.59;94423.63;5010690;28;20313;-71
2023/03/08 03:59:01;;;;;;;15.63;7.17;;;;;;;5.58;78.08;94411.31;5031214;28;20313;-71
2023/03/08 04:01:28;;;;;;;19.33;7.27;;;;;;;5.71;78.98;94423.66;5026337;28;20986;-72
2023/03/08 04:03:56;;;;;;;18.27;6.93;;;;;;;5.49;80.21;94416.78;5032587;28;20221;-72
2023/03/08 04:06:28;;;;;;;16.27;6.77;;;;;;;5.28;80.42;94420.91;5015320;28;20297;-72
2023/03/08 04:08:56;;;;;;;15.37;7.10;;;;;;;5.10;82.31;94410.09;5014473;28;20242;-71
2023/03/08 04:11:28;;;;;;;16.60;7.30;;;;;;;5.23;81.21;94415.44;5030919;28;20233;-71
2023/03/08 04:13:54;;;;;;;19.30;6.87;;;;;;;5.29;81.30;94419.13;5006228;28;20248;-71
2023/03/08 04:16:24;;;;;;;13.13;6.70;;;;;;;5.26;80.79;94427.25;5014255;28;20226;-71
2023/03/08 04:19:00;;;;;;;16.20;7.37;;;;;;;5.43;80.28;94421.72;5021509;28;20244;-72
2023/03/08 04:21:26;;;;;;;15.23;6.83;;;;;;;5.41;79.72;94415.91;5018745;28;20342;-72
2023/03/08 04:23:51;;;;;;;17.30;7.00;;;;;;;5.36;80.38;94418.22;5005205;28;20917;-71
2023/03/08 04:26:17;;;;;;;12.63;6.67;;;;;;;5.40;80.99;94424.66;5005555;28;20229;-72
2023/03/08 04:28:43;;;;;;;14.10;6.73;;;;;;;5.40;80.31;94435.03;5028604;28;20320;-72
2023/03/08 04:31:16;;;;;;;17.13;6.83;;;;;;;5.50;80.93;94434.75;5027772;28;20603;-71
2023/03/08 04:33:45;;;;;;;15.50;6.77;;;;;;;5.29;81.52;94425.13;4977706;28;20236;-72
2023/03/08 04:36:14;;;;;;;17.03;6.90;;;;;;;5.34;81.10;94424.59;5010604;28;20666;-72
2023/03/08 04:38:40;;;;;;;13.63;6.73;;;;;;;5.30;81.26;94425.94;4988896;28;20238;-71
2023/03/08 04:41:12;;;;;;;20.40;6.70;;;;;;;5.21;81.83;94420.03;5009385;28;20241;-72
2023/03/08 04:43:48;;;;;;;18.13;6.73;;;;;;;5.32;81.11;94419.59;5020641;28;20392;-71
2023/03/08 04:46:17;;;;;;;22.40;6.20;;;;;;;5.30;81.04;94418.16;4994240;28;20236;-70
2023/03/08 04:48:44;;;;;;;20.53;7.03;;;;;;;5.54;79.97;94417.06;5024001;28;20245;-71
2023/03/08 04:51:10;;;;;;;17.33;7.00;;;;;;;5.56;79.63;94420.28;5019215;28;20234;-70
2023/03/08 04:53:37;;;;;;;14.33;6.77;;;;;;;5.58;79.77;94424.31;5001236;28;20238;-72
2023/03/08 04:56:04;;;;;;;22.67;6.90;;;;;;;5.56;80.53;94428.88;5030991;28;20244;-71
2023/03/08 04:58:30;;;;;;;15.03;6.80;;;;;;;5.22;81.17;94437.19;5009440;28;20375;-71
2023/03/08 05:00:56;;;;;;;17.10;6.87;;;;;;;5.14;81.84;94429.50;5015567;28;20230;-71
2023/03/08 05:03:24;;;;;;;17.73;6.97;;;;;;;5.06;82.95;94436.56;5005259;28;20305;-71
2023/03/08 05:05:53;;;;;;;17.50;6.77;;;;;;;4.95;83.36;94440.38;5042237;28;20287;-72
2023/03/08 05:08:31;;;;;;;28.17;10.97;;;;;;;5.09;82.27;94438.78;5015903;28;20257;-72
2023/03/08 05:10:58;;;;;;;21.60;8.13;;;;;;;5.09;81.77;94449.16;5029725;28;20730;-71
2023/03/08 05:13:27;;;;;;;47.13;18.13;;;;;;;5.13;80.55;94461.63;5002094;28;20869;-71
2023/03/08 05:15:53;;;;;;;50.17;19.33;;;;;;;5.10;78.68;94464.56;5005333;28;20242;-72
2023/03/08 05:18:19;;;;;;;40.23;17.67;;;;;;;5.15;78.70;94457.06;5018100;28;20233;-72
2023/03/08 05:20:58;;;;;;;33.73;14.87;;;;;;;5.37;77.36;94453.56;5030302;28;20238;-71
2023/03/08 05:23:24;;;;;;;36.10;15.30;;;;;;;5.48;77.01;94454.91;5041800;28;20233;-71
2023/03/08 05:25:54;;;;;;;36.17;15.90;;;;;;;5.33;77.68;94467.06;5017588;28;20249;-71
2023/03/08 05:28:20;;;;;;;34.10;15.30;;;;;;;5.41;77.38;94469.59;5037792;28;20237;-72
2023/03/08 05:30:46;;;;;;;39.43;15.63;;;;;;;5.33;78.91;94482.63;5031401;28;20247;-73
2023/03/08 05:33:15;;;;;;;41.03;16.53;;;;;;;5.31;78.48;94489.78;5000718;28;20265;-71
2023/03/08 05:35:43;;;;;;;43.17;17.07;;;;;;;5.26;79.34;94492.91;5037359;28;20271;-72
2023/03/08 05:38:08;;;;;;;37.93;16.23;;;;;;;5.25;78.57;94496.47;5036160;28;20229;-72
2023/03/08 05:40:37;;;;;;;35.47;16.07;;;;;;;5.20;78.87;94491.06;5034893;28;20704;-72
2023/03/08 05:43:18;;;;;;;34.80;15.30;;;;;;;5.16;79.94;94494.19;5031083;28;20602;-73
2023/03/08 05:45:56;;;;;;;37.23;15.67;;;;;;;5.32;78.61;94492.22;5031622;28;20222;-72
2023/03/08 05:48:25;;;;;;;37.37;16.17;;;;;;;5.22;79.74;94499.47;5040423;28;20233;-72
2023/03/08 05:50:53;;;;;;;37.47;16.10;;;;;;;5.09;80.22;94501.84;5013762;28;20240;-71
2023/03/08 05:53:19;;;;;;;36.37;16.33;;;;;;;5.00;81.79;94513.28;5020848;28;20260;-72
2023/03/08 05:55:44;;;;;;;35.23;16.13;;;;;;;5.08;80.81;94507.22;5033077;28;20346;-71
2023/03/08 05:58:10;;;;;;;36.93;16.33;;;;;;;5.12;80.19;94513.66;5008775;28;20734;-73
2023/03/08 06:00:36;;;;;;;33.57;15.57;;;;;;;5.44;77.85;94514.13;5007900;28;20237;-71
2023/03/08 06:03:07;;;;;;;31.67;15.07;;;;;;;5.64;76.98;94513.59;5021054;28;20217;-71
2023/03/08 06:05:35;;;;;;;33.67;14.90;;;;;;;5.80;77.63;94524.63;5029038;28;20237;-71
2023/03/08 06:08:01;;;;;;;34.37;14.50;;;;;;;5.89;77.54;94527.97;5029449;28;20324;-72
2023/03/08 06:10:27;;;;;;;39.47;15.80;;;;;;;5.81;77.21;94520.22;5038952;28;20245;-72
2023/03/08 06:12:53;;;;;;;40.10;16.53;;;;;;;6.00;76.01;94524.88;5033132;28;20232;-72
2023/03/08 06:15:18;;;;;;;41.37;16.43;;;;;;;6.18;75.36;94529.72;5030929;28;20752;-72
2023/03/08 06:17:44;;;;;;;41.60;16.50;;;;;;;6.27;75.55;94526.00;5035539;28;20241;-71
2023/03/08 06:20:10;;;;;;;37.43;16.67;;;;;;;6.31;74.87;94528.06;5032534;28;20275;-73
2023/03/08 06:22:38;;;;;;;36.40;16.13;;;;;;;6.29;75.96;94537.84;5033279;28;20233;-73
2023/03/08 06:25:07;;;;;;;42.10;16.43;;;;;;;6.47;75.00;94533.03;5031013;28;20284;-71
2023/03/08 06:27:36;;;;;;;41.30;16.83;;;;;;;6.58;75.30;94535.16;5049206;28;20229;-72
2023/03/08 06:30:04;;;;;;;48.13;16.60;;;;;;;6.69;75.09;94534.66;5032804;28;20248;-72
2023/03/08 06:32:34;;;;;;;44.83;16.17;;;;;;;6.44;77.05;94536.00;5030150;28;20248;-72
2023/03/08 06:35:04;;;;;;;37.83;15.20;;;;;;;6.79;76.63;94544.75;5011960;28;20340;-72
2023/03/08 06:37:33;;;;;;;40.50;16.43;;;;;;;7.10;73.32;94547.03;5033324;28;20229;-72
2023/03/08 06:39:59;;;;;;;44.77;15.87;;;;;;;7.40;72.01;94538.88;5034230;28;20707;-71
2023/03/08 06:42:25;;;;;;;38.97;14.93;;;;;;;7.68;70.86;94540.66;5022318;28;20226;-72
2023/03/08 06:44:53;;;;;;;37.50;15.47;;;;;;;8.09;70.47;94547.53;5033800;28;20233;-71
2023/03/08 06:47:34;;;;;;;30.87;13.70;;;;;;;8.28;68.82;94560.88;5034927;28;20260;-72
2023/03/08 06:50:03;;;;;;;25.97;9.00;;;;;;;8.47;68.38;94567.97;5038044;28;20252;-73
2023/03/08 06:52:36;;;;;;;22.90;10.00;;;;;;;8.73;68.19;94565.44;5009823;28;20284;-71
2023/03/08 06:55:07;;;;;;;21.13;8.27;;;;;;;8.92;67.16;94564.69;5022321;28;20242;-70
2023/03/08 06:57:38;;;;;;;21.03;8.37;;;;;;;9.21;65.57;94566.94;5013120;28;20246;-72
2023/03/08 07:00:04;;;;;;;22.27;8.70;;;;;;;9.36;64.88;94572.75;5014718;28;20241;-72
2023/03/08 07:02:30;;;;;;;20.97;9.20;;;;;;;9.50;63.85;94586.66;5029290;28;20230;-72
2023/03/08 07:04:55;;;;;;;21.80;8.83;;;;;;;9.69;64.22;94582.41;5010358;28;20260;-72
2023/03/08 07:07:21;;;;;;;15.47;8.10;;;;;;;9.74;63.74;94591.28;5032358;28;20229;-72
2023/03/08 07:09:47;;;;;;;19.87;8.53;;;;;;;9.78;62.96;94584.63;5030575;28;20234;-71
2023/03/08 07:12:12;;;;;;;19.97;8.07;;;;;;;10.18;62.22;94595.84;5014197;28;20601;-71
2023/03/08 07:14:40;;;;;;;17.73;7.80;;;;;;;10.07;62.52;94593.84;5032808;28;20241;-72
2023/03/08 07:17:09;;;;;;;23.47;8.27;;;;;;;9.81;62.57;94591.25;5032404;28;20232;-71
2023/03/08 07:19:37;;;;;;;14.87;7.50;;;;;;;9.96;62.83;94599.66;5034613;28;21094;-71
2023/03/08 07:22:03;;;;;;;20.87;8.23;;;;;;;10.32;62.14;94594.78;5024947;28;20800;-71
2023/03/08 07:24:28;;;;;;;17.47;7.80;;;;;;;9.91;62.54;94597.66;5028846;28;20233;-72
2023/03/08 07:27:07;;;;;;;17.67;7.43;;;;;;;9.95;63.48;94592.84;5026175;28;21079;-71
2023/03/08 07:29:35;;;;;;;16.63;7.10;;;;;;;10.00;63.27;94585.19;5032810;28;20244;-70
2023/03/08 07:32:04;;;;;;;15.77;7.70;;;;;;;9.97;63.25;94598.66;5019716;28;20245;-72
2023/03/08 07:34:42;;;;;;;18.30;7.73;;;;;;;9.96;62.76;94599.66;5039856;28;20237;-72
2023/03/08 07:37:12;;;;;;;36.93;8.63;;;;;;;10.08;63.40;94600.66;5028915;28;20234;-72
2023/03/08 07:39:46;;;;;;;17.20;7.07;;;;;;;10.06;62.24;94595.63;5030492;28;20234;-73
2023/03/08 07:42:12;;;;;;;19.30;7.30;;;;;;;9.90;63.07;94596.06;5011102;28;20245;-72
2023/03/08 07:44:37;;;;;;;19.97;7.00;;;;;;;9.91;63.98;94594.28;5031949;28;20228;-72
2023/03/08 07:47:06;;;;;;;18.87;6.90;;;;;;;9.84;63.62;94601.31;5035238;28;20308;-71
2023/03/08 07:49:44;;;;;;;16.10;7.23;;;;;;;10.38;62.34;94595.78;5024397;28;20237;-72
2023/03/08 07:52:22;;;;;;;15.70;7.30;;;;;;;10.71;61.54;94593.84;5019943;28;20676;-72
2023/03/08 07:55:01;;;;;;;17.27;7.47;;;;;;;10.62;61.39;94595.13;5012723;28;20366;-72
2023/03/08 07:57:27;;;;;;;13.90;6.67;;;;;;;10.39;62.20;94606.03;5010431;28;20291;-72
2023/03/08 07:59:53;;;;;;;14.83;6.53;;;;;;;10.33;62.53;94595.59;5016324;28;20660;-72
2023/03/08 08:02:21;;;;;;;14.57;6.30;;;;;;;10.54;61.92;94601.38;5014464;28;20337;-72
2023/03/08 08:04:49;;;;;;;14.67;6.37;;;;;;;10.61;60.86;94596.91;5030831;28;20364;-72
2023/03/08 08:07:18;;;;;;;18.07;6.70;;;;;;;10.59;61.51;94596.31;5027024;28;20238;-72
2023/03/08 08:09:43;;;;;;;15.23;6.80;;;;;;;10.65;61.33;94598.09;5031023;28;20244;-71
2023/03/08 08:12:09;;;;;;;13.47;7.07;;;;;;;10.47;61.72;94602.41;5029655;28;20226;-71
2023/03/08 08:14:34;;;;;;;15.13;6.77;;;;;;;10.72;61.46;94595.47;5016200;28;20669;-72
2023/03/08 08:17:00;;;;;;;22.10;7.63;;;;;;;10.58;61.41;94599.94;5022185;28;20272;-72
2023/03/08 08:19:30;;;;;;;17.87;6.87;;;;;;;10.56;62.33;94606.38;5038448;28;20256;-71
2023/03/08 08:22:04;;;;;;;12.33;5.93;;;;;;;10.45;62.28;94605.22;5030884;28;20232;-71
2023/03/08 08:24:31;;;;;;;17.50;6.60;;;;;;;10.64;62.03;94598.31;5003797;28;20341;-71
2023/03/08 08:26:57;;;;;;;18.40;7.53;;;;;;;10.68;61.01;94599.50;4995412;28;20240;-72
2023/03/08 08:29:23;;;;;;;20.83;7.77;;;;;;;10.59;61.65;94606.78;5002580;28;20233;-73
2023/03/08 08:31:51;;;;;;;19.87;9.10;;;;;;;10.44;61.05;94605.41;5029257;28;20291;-72
2023/03/08 08:34:18;;;;;;;25.60;9.23;;;;;;;10.51;61.21;94608.81;5013022;28;20229;-72
2023/03/08 08:36:47;;;;;;;20.53;8.77;;;;;;;10.92;61.11;94617.13;5002822;28;20324;-72
2023/03/08 08:39:12;;;;;;;19.73;8.63;;;;;;;10.86;60.49;94609.31;5028162;28;20287;-71
2023/03/08 08:41:38;;;;;;;24.67;8.97;;;;;;;10.89;60.44;94614.13;5029317;28;20233;-72
2023/03/08 08:44:03;;;;;;;17.17;8.87;;;;;;;11.14;59.81;94607.94;5023605;28;20251;-72
2023/03/08 08:46:30;;;;;;;19.03;8.87;;;;;;;11.34;59.38;94605.22;5036250;28;20225;-71
2023/03/08 08:48:57;;;;;;;23.47;9.43;;;;;;;11.40;59.15;94606.97;5038309;28;20221;-72
2023/03/08 08:51:23;;;;;;;24.77;9.53;;;;;;;11.71;57.99;94606.97;5016603;28;20261;-72
2023/03/08 08:53:51;;;;;;;21.03;9.63;;;;;;;11.95;57.04;94607.97;5028276;28;20933;-71
2023/03/08 08:56:18;;;;;;;21.43;9.13;;;;;;;11.47;58.43;94605.09;5029175;28;20221;-72
2023/03/08 08:58:46;;;;;;;22.73;9.10;;;;;;;11.85;58.41;94605.84;5032491;28;20269;-72
2023/03/08 09:01:19;;;;;;;23.47;9.30;;;;;;;11.96;57.22;94610.41;5032419;28;20244;-72
2023/03/08 09:03:47;;;;;;;18.50;8.87;;;;;;;11.96;56.93;94607.78;5026043;28;20230;-72
2023/03/08 09:06:14;;;;;;;18.17;8.73;;;;;;;12.06;57.82;94609.91;5017687;28;20242;-72
2023/03/08 09:08:40;;;;;;;17.97;8.30;;;;;;;11.98;56.41;94602.31;5018977;28;20257;-72
2023/03/08 09:11:07;;;;;;;23.17;8.77;;;;;;;12.00;57.33;94606.34;4999300;28;20269;-72
2023/03/08 09:13:37;;;;;;;22.33;8.67;;;;;;;12.00;56.18;94602.91;5038035;28;20240;-71
2023/03/08 09:16:03;;;;;;;21.23;9.10;;;;;;;12.06;56.17;94599.44;5018809;28;20249;-73
2023/03/08 09:18:28;;;;;;;18.47;8.97;;;;;;;12.24;57.00;94609.13;5049382;28;20331;-71
2023/03/08 09:21:04;;;;;;;18.03;8.40;;;;;;;11.89;57.14;94595.75;5034254;28;20226;-73
2023/03/08 09:23:32;;;;;;;21.27;9.83;;;;;;;11.77;56.78;94600.91;5028266;28;20236;-73
2023/03/08 09:25:58;;;;;;;19.47;9.07;;;;;;;11.70;58.37;94588.84;5008873;28;20221;-72
2023/03/08 09:28:29;;;;;;;23.00;9.00;;;;;;;11.63;57.40;94588.84;5035097;28;20233;-72
2023/03/08 09:30:54;;;;;;;20.90;8.90;;;;;;;11.90;57.14;94594.72;5031725;28;20242;-72
2023/03/08 09:33:20;;;;;;;18.30;8.57;;;;;;;12.28;56.44;94586.69;5023453;28;20266;-73
2023/03/08 09:35:56;;;;;;;22.00;8.80;;;;;;;12.23;55.61;94586.56;5024580;28;20242;-73
2023/03/08 09:38:25;;;;;;;20.40;8.30;;;;;;;12.36;55.98;94583.78;5025918;28;20260;-72
2023/03/08 09:41:33;;;;;;;22.53;9.00;;;;;;;12.40;55.17;94585.75;5032773;28;20252;-71
2023/03/08 09:44:23;;;;;;;21.70;9.20;;;;;;;12.42;55.56;94582.91;5041168;28;20758;-71
2023/03/08 09:47:28;;;;;;;19.63;8.83;;;;;;;12.69;54.87;94582.38;5033949;28;20240;-72
2023/03/08 09:50:05;;;;;;;22.93;9.20;;;;;;;12.75;54.48;94578.09;5001966;28;20231;-72
2023/03/08 09:52:37;;;;;;;22.57;9.57;;;;;;;12.87;54.60;94580.75;5035619;28;20238;-71
2023/03/08 09:55:11;;;;;;;19.20;8.63;;;;;;;13.29;54.24;94577.16;5002499;28;20246;-71
2023/03/08 09:57:41;;;;;;;21.80;8.93;;;;;;;13.00;53.56;94568.25;5021699;28;20369;-73
2023/03/08 10:00:16;;;;;;;23.07;9.87;;;;;;;12.87;54.54;94565.00;5017424;28;20230;-71
2023/03/08 10:03:05;;;;;;;21.37;8.80;;;;;;;13.11;54.39;94566.72;5015911;28;20237;-72
2023/03/08 10:05:49;;;;;;;16.10;8.00;;;;;;;13.17;54.39;94563.19;5035149;28;20245;-71
2023/03/08 10:08:17;;;;;;;20.13;8.63;;;;;;;13.32;53.20;94560.97;5035042;28;20334;-72
2023/03/08 10:11:01;;;;;;;18.70;8.37;;;;;;;13.39;53.28;94551.97;5034834;28;20328;-72
2023/03/08 10:13:40;;;;;;;20.10;8.23;;;;;;;13.43;52.80;94568.06;5024767;28;20244;-71
2023/03/08 10:16:43;;;;;;;19.57;8.53;;;;;;;13.72;51.92;94553.25;5007107;28;20241;-72
2023/03/08 10:19:29;;;;;;;19.00;7.77;;;;;;;13.60;53.18;94557.69;5033531;28;20237;-71
2023/03/08 10:21:56;;;;;;;21.47;8.00;;;;;;;13.66;52.03;94560.22;5023114;28;20406;-72
2023/03/08 10:24:29;;;;;;;20.93;8.63;;;;;;;13.58;52.02;94552.66;4998771;28;20997;-71
2023/03/08 10:27:00;;;;;;;22.43;8.80;;;;;;;13.94;51.45;94556.94;5031126;28;20328;-71
2023/03/08 10:29:26;;;;;;;19.30;8.30;;;;;;;13.91;50.98;94560.00;5030900;28;20672;-70
2023/03/08 10:31:55;;;;;;;18.10;7.70;;;;;;;14.06;50.81;94557.72;5029858;28;20244;-71
2023/03/08 10:34:23;;;;;;;17.73;7.93;;;;;;;14.23;50.71;94544.66;5029767;28;20230;-72
2023/03/08 10:36:56;;;;;;;20.17;8.20;;;;;;;13.79;50.34;94549.47;5010703;28;20244;-72
2023/03/08 10:39:24;;;;;;;19.97;8.37;;;;;;;14.16;51.78;94544.81;5010638;28;20241;-71
2023/03/08 10:41:52;;;;;;;19.17;7.60;;;;;;;14.35;50.43;94546.28;5036534;28;20235;-72
2023/03/08 10:44:42;;;;;;;16.13;7.30;;;;;;;14.24;48.98;94547.06;5015820;28;20989;-72
2023/03/08 10:47:19;;;;;;;14.93;7.17;;;;;;;14.14;49.45;94537.13;5033726;28;20233;-72
2023/03/08 10:49:46;;;;;;;21.77;8.10;;;;;;;13.99;49.85;94536.00;5036373;28;20359;-72
2023/03/08 10:52:21;;;;;;;20.20;7.80;;;;;;;14.10;50.34;94529.91;5032578;28;20265;-72
2023/03/08 10:54:50;;;;;;;15.37;7.43;;;;;;;13.95;49.91;94530.38;5018772;28;20259;-71
2023/03/08 10:57:16;;;;;;;17.10;7.40;;;;;;;14.29;49.56;94522.69;5030056;28;20222;-71
2023/03/08 10:59:47;;;;;;;16.57;7.70;;;;;;;14.33;49.27;94516.75;5017318;28;20238;-71
2023/03/08 11:02:12;;;;;;;17.47;7.07;;;;;;;14.10;48.90;94522.81;5018786;28;20246;-71
2023/03/08 11:04:48;;;;;;;15.53;6.90;;;;;;;14.38;48.80;94526.56;5032226;28;20719;-71
2023/03/08 11:07:34;;;;;;;18.80;6.80;;;;;;;14.60;48.14;94519.66;5033528;28;20240;-71
2023/03/08 11:10:11;;;;;;;18.27;8.00;;;;;;;14.24;48.87;94514.66;5012245;28;20230;-71
2023/03/08 11:12:37;;;;;;;17.03;7.10;;;;;;;14.21;49.60;94505.41;5035546;28;20972;-71
2023/03/08 11:15:14;;;;;;;18.70;7.00;;;;;;;14.29;48.93;94498.97;5030135;28;20275;-71
2023/03/08 11:18:02;;;;;;;17.00;6.33;;;;;;;14.12;49.38;94493.63;5018696;28;20238;-71
2023/03/08 11:20:32;;;;;;;17.67;6.70;;;;;;;14.01;50.15;94486.56;4994348;28;20236;-71
2023/03/08 11:23:01;;;;;;;15.93;5.90;;;;;;;13.91;50.70;94486.34;5017053;28;20241;-71
2023/03/08 11:25:44;;;;;;;12.80;5.93;;;;;;;13.90;49.31;94479.50;5015443;28;20229;-72
2023/03/08 11:28:34;;;;;;;12.67;4.93;;;;;;;14.24;49.24;94465.47;5001915;28;20229;-72
2023/03/08 11:31:09;;;;;;;13.37;4.03;;;;;;;14.75;47.75;94467.28;5013781;28;20238;-70
2023/03/08 11:34:05;;;;;;;9.97;3.80;;;;;;;14.70;47.78;94460.09;5029351;28;21236;-70
2023/03/08 11:36:37;;;;;;;8.63;3.83;;;;;;;14.99;46.96;94452.16;5033229;28;20245;-70
2023/03/08 11:39:14;;;;;;;8.13;3.70;;;;;;;15.34;46.23;94452.72;5024671;28;20233;-71